createdAt,value
2022-07-27T00:00:13.073Z,54397.04
2022-07-27T00:01:15.727Z,54384.01
2022-07-27T00:02:18.508Z,54364.96
2022-07-27T00:03:21.481Z,54378.00
2022-07-27T00:04:24.346Z,54379.00
2022-07-27T00:05:27.349Z,54384.01
2022-07-27T00:06:30.120Z,54345.92
2022-07-27T00:07:32.988Z,54289.79
2022-07-27T00:08:36.791Z,54236.66
2022-07-27T00:09:39.655Z,54235.66
2022-07-27T00:10:42.632Z,54328.88
2022-07-27T00:11:45.411Z,54323.87
2022-07-27T00:12:48.492Z,54271.75
2022-07-27T00:13:51.362Z,54229.64
2022-07-27T00:14:54.242Z,54122.39
2022-07-27T00:15:57.227Z,53969.04
2022-07-27T00:16:59.786Z,54002.12
2022-07-27T00:18:02.653Z,54019.16
2022-07-27T00:19:08.990Z,54038.20
2022-07-27T00:20:09.639Z,53997.11
2022-07-27T00:21:12.299Z,53954.01
2022-07-27T00:22:14.869Z,53917.93
2022-07-27T00:23:18.055Z,53949.00
2022-07-27T00:24:20.718Z,54020.16
2022-07-27T00:25:23.616Z,54067.27
2022-07-27T00:26:26.368Z,53956.02
2022-07-27T00:27:29.244Z,53847.77
2022-07-27T00:28:31.815Z,53870.82
2022-07-27T00:29:34.488Z,53871.82
2022-07-27T00:30:37.062Z,53935.97
2022-07-27T00:31:40.076Z,53888.86
2022-07-27T00:32:42.803Z,53937.97
2022-07-27T00:33:45.567Z,53923.94
2022-07-27T00:34:48.142Z,53857.79
2022-07-27T00:35:50.915Z,53843.76
2022-07-27T00:36:53.587Z,53877.84
2022-07-27T00:37:56.160Z,53838.75
2022-07-27T00:39:00.349Z,53841.75
2022-07-27T00:40:02.924Z,53841.75
2022-07-27T00:41:05.688Z,53749.55
2022-07-27T00:42:08.361Z,53701.44
2022-07-27T00:43:10.943Z,53747.55
2022-07-27T00:44:13.801Z,53741.53
2022-07-27T00:45:16.569Z,53683.40
2022-07-27T00:46:19.405Z,53680.40
2022-07-27T00:47:22.021Z,53673.38
2022-07-27T00:48:24.786Z,53631.29
2022-07-27T00:49:29.104Z,53671.37
2022-07-27T00:50:31.768Z,53701.44
2022-07-27T00:51:34.442Z,53716.48
2022-07-27T00:52:37.110Z,53737.52
2022-07-27T00:53:39.779Z,53687.41
2022-07-27T00:54:42.454Z,53632.29
2022-07-27T00:55:45.014Z,53680.40
2022-07-27T00:56:47.893Z,53662.36
2022-07-27T00:57:58.023Z,53719.48
2022-07-27T00:58:55.074Z,53725.50
2022-07-27T00:59:57.940Z,53702.45
2022-07-27T01:01:00.612Z,53652.34
2022-07-27T01:02:03.780Z,53618.26
2022-07-27T01:03:09.015Z,53638.30
2022-07-27T01:04:10.772Z,53621.27
2022-07-27T01:05:13.648Z,53586.19
2022-07-27T01:06:16.225Z,53541.09
2022-07-27T01:07:18.999Z,53569.15
2022-07-27T01:08:21.577Z,53566.14
2022-07-27T01:09:24.326Z,53595.21
2022-07-27T01:10:26.901Z,53574.16
2022-07-27T01:11:29.574Z,53581.18
2022-07-27T01:12:32.255Z,53555.12
2022-07-27T01:13:34.803Z,53556.12
2022-07-27T01:14:37.570Z,53526.06
2022-07-27T01:15:40.467Z,53559.13
2022-07-27T01:16:43.226Z,53557.12
2022-07-27T01:17:45.904Z,53561.14
2022-07-27T01:18:48.464Z,53525.05
2022-07-27T01:19:51.032Z,53536.08
2022-07-27T01:20:53.798Z,53534.08
2022-07-27T01:21:56.583Z,53529.06
2022-07-27T01:22:59.140Z,53537.08
2022-07-27T01:24:01.712Z,53477.95
2022-07-27T01:25:04.293Z,53472.95
2022-07-27T01:26:07.152Z,53480.96
2022-07-27T01:27:09.721Z,53452.90
2022-07-27T01:28:12.391Z,53440.88
2022-07-27T01:29:15.383Z,53412.82
2022-07-27T01:30:18.241Z,53444.88
2022-07-27T01:31:21.565Z,53500.00
2022-07-27T01:32:24.304Z,53513.03
2022-07-27T01:33:27.276Z,53458.91
2022-07-27T01:34:30.049Z,53487.98
2022-07-27T01:35:33.026Z,53480.96
2022-07-27T01:36:35.807Z,53445.89
2022-07-27T01:37:38.668Z,53494.99
2022-07-27T01:38:43.278Z,53431.86
2022-07-27T01:39:46.175Z,53404.80
2022-07-27T01:40:49.031Z,53455.91
2022-07-27T01:41:51.809Z,53430.85
2022-07-27T01:42:54.582Z,53380.75
2022-07-27T01:43:57.352Z,53423.84
2022-07-27T01:45:00.023Z,53392.77
2022-07-27T01:46:02.680Z,53410.81
2022-07-27T01:47:14.457Z,53407.80
2022-07-27T01:48:09.463Z,53412.82
2022-07-27T01:49:12.678Z,53386.76
2022-07-27T01:50:15.726Z,53310.60
2022-07-27T01:51:18.391Z,53302.58
2022-07-27T01:52:20.964Z,53324.63
2022-07-27T01:53:23.643Z,53297.57
2022-07-27T01:54:26.405Z,53269.51
2022-07-27T01:55:30.318Z,53261.50
2022-07-27T01:56:33.592Z,53242.45
2022-07-27T01:57:36.929Z,53275.52
2022-07-27T01:58:40.039Z,53294.56
2022-07-27T01:59:43.731Z,53269.51
2022-07-27T02:00:46.842Z,53219.41
2022-07-27T02:01:49.812Z,53228.42
2022-07-27T02:02:52.778Z,53226.42
2022-07-27T02:03:55.762Z,53235.44
2022-07-27T02:04:58.605Z,53223.41
2022-07-27T02:06:01.511Z,53219.41
2022-07-27T02:07:04.177Z,53204.37
2022-07-27T02:08:06.957Z,53192.35
2022-07-27T02:09:10.092Z,53164.29
2022-07-27T02:10:13.119Z,53159.28
2022-07-27T02:11:15.780Z,53182.33
2022-07-27T02:12:18.847Z,53185.34
2022-07-27T02:13:22.696Z,53194.35
2022-07-27T02:14:26.049Z,53168.30
2022-07-27T02:15:28.977Z,53186.34
2022-07-27T02:16:33.400Z,53208.38
2022-07-27T02:17:36.498Z,53178.32
2022-07-27T02:18:39.378Z,53214.39
2022-07-27T02:19:42.361Z,53178.32
2022-07-27T02:20:45.737Z,53178.32
2022-07-27T02:21:48.523Z,53160.28
2022-07-27T02:22:51.181Z,53177.32
2022-07-27T02:23:54.175Z,53131.22
2022-07-27T02:24:56.931Z,53130.22
2022-07-27T02:26:00.139Z,53133.23
2022-07-27T02:27:02.789Z,53133.23
2022-07-27T02:28:05.574Z,53134.23
2022-07-27T02:29:08.597Z,53126.21
2022-07-27T02:30:11.323Z,53128.21
2022-07-27T02:31:14.186Z,53127.21
2022-07-27T02:32:16.856Z,53124.21
2022-07-27T02:33:19.808Z,53124.21
2022-07-27T02:34:22.709Z,53105.17
2022-07-27T02:35:25.382Z,53088.13
2022-07-27T02:36:28.353Z,53139.24
2022-07-27T02:37:31.239Z,53078.11
2022-07-27T02:38:34.221Z,53100.16
2022-07-27T02:39:37.081Z,53095.15
2022-07-27T02:40:39.963Z,53080.12
2022-07-27T02:41:42.835Z,53107.17
2022-07-27T02:42:45.611Z,53073.10
2022-07-27T02:43:48.590Z,53122.20
2022-07-27T02:44:51.569Z,53101.16
2022-07-27T02:45:54.529Z,53128.21
2022-07-27T02:46:57.312Z,53091.14
2022-07-27T02:47:59.881Z,53094.14
2022-07-27T02:49:15.376Z,53102.16
2022-07-27T02:50:18.833Z,53135.23
2022-07-27T02:51:21.812Z,53064.08
2022-07-27T02:52:25.091Z,53094.14
2022-07-27T02:53:28.080Z,53101.16
2022-07-27T02:54:31.056Z,53088.13
2022-07-27T02:55:33.920Z,53080.12
2022-07-27T02:56:36.805Z,53072.10
2022-07-27T02:57:39.674Z,53068.09
2022-07-27T02:58:42.658Z,53062.08
2022-07-27T02:59:45.628Z,53079.11
2022-07-27T03:00:48.415Z,53067.09
2022-07-27T03:01:51.268Z,53058.07
2022-07-27T03:02:54.256Z,53054.06
2022-07-27T03:03:56.853Z,53038.03
2022-07-27T03:04:59.479Z,53073.10
2022-07-27T03:06:02.262Z,53096.15
2022-07-27T03:07:04.929Z,53068.09
2022-07-27T03:08:07.712Z,53032.02
2022-07-27T03:09:10.950Z,53092.14
2022-07-27T03:10:13.762Z,53064.08
2022-07-27T03:11:16.532Z,53094.14
2022-07-27T03:12:19.305Z,53051.06
2022-07-27T03:13:21.969Z,53038.03
2022-07-27T03:14:24.639Z,53075.11
2022-07-27T03:15:27.682Z,53044.04
2022-07-27T03:16:30.597Z,53058.07
2022-07-27T03:17:33.369Z,53078.11
2022-07-27T03:18:36.441Z,53045.04
2022-07-27T03:19:39.223Z,53036.03
2022-07-27T03:20:42.089Z,53068.09
2022-07-27T03:21:45.167Z,53076.11
2022-07-27T03:22:48.252Z,53022.00
2022-07-27T03:23:51.237Z,53031.02
2022-07-27T03:24:54.199Z,53070.10
2022-07-27T03:25:57.081Z,53059.07
2022-07-27T03:26:59.749Z,53014.98
2022-07-27T03:28:04.425Z,53038.03
2022-07-27T03:29:07.037Z,53079.11
2022-07-27T03:30:09.926Z,53047.05
2022-07-27T03:31:12.578Z,53070.10
2022-07-27T03:32:15.150Z,53017.99
2022-07-27T03:33:17.917Z,53034.02
2022-07-27T03:34:20.888Z,53104.16
2022-07-27T03:35:23.673Z,53090.14
2022-07-27T03:36:26.444Z,53033.02
2022-07-27T03:37:29.113Z,53039.03
2022-07-27T03:38:31.887Z,53057.07
2022-07-27T03:39:34.971Z,53053.06
2022-07-27T03:40:37.545Z,53034.02
2022-07-27T03:41:40.199Z,53021.00
2022-07-27T03:42:42.968Z,53028.01
2022-07-27T03:43:45.839Z,53007.97
2022-07-27T03:44:49.150Z,53050.05
2022-07-27T03:45:52.177Z,53049.05
2022-07-27T03:46:54.881Z,53055.07
2022-07-27T03:47:57.661Z,53032.02
2022-07-27T03:49:00.261Z,53016.99
2022-07-27T03:50:03.398Z,53032.02
2022-07-27T03:51:06.169Z,53019.99
2022-07-27T03:52:10.253Z,53040.04
2022-07-27T03:53:13.050Z,53034.02
2022-07-27T03:54:15.928Z,53039.03
2022-07-27T03:55:18.799Z,53040.04
2022-07-27T03:56:21.478Z,53041.04
2022-07-27T03:57:24.245Z,53056.07
2022-07-27T03:58:27.233Z,53005.96
2022-07-27T03:59:29.789Z,52980.91
2022-07-27T04:00:32.660Z,53004.96
2022-07-27T04:01:35.435Z,52984.92
2022-07-27T04:02:38.265Z,53018.99
2022-07-27T04:03:44.452Z,53001.96
2022-07-27T04:04:47.237Z,53030.02
2022-07-27T04:05:52.673Z,53017.99
2022-07-27T04:06:55.443Z,53018.99
2022-07-27T04:07:58.208Z,53022.00
2022-07-27T04:09:08.477Z,53000.95
2022-07-27T04:10:07.977Z,53039.03
2022-07-27T04:11:11.434Z,53035.02
2022-07-27T04:12:16.643Z,53027.01
2022-07-27T04:13:19.249Z,52973.90
2022-07-27T04:14:22.330Z,53028.01
2022-07-27T04:15:24.994Z,53030.02
2022-07-27T04:16:35.646Z,53030.02
2022-07-27T04:17:56.221Z,53043.04
2022-07-27T04:18:38.730Z,53042.04
2022-07-27T04:19:41.407Z,53019.99
2022-07-27T04:20:44.172Z,52980.91
2022-07-27T04:21:46.951Z,53030.02
2022-07-27T04:22:49.840Z,52998.95
2022-07-27T04:23:58.432Z,52963.88
2022-07-27T04:25:01.413Z,52999.95
2022-07-27T04:26:04.178Z,53033.02
2022-07-27T04:27:07.161Z,53036.03
2022-07-27T04:28:09.830Z,53019.99
2022-07-27T04:29:15.698Z,53045.04
2022-07-27T04:30:16.922Z,53045.04
2022-07-27T04:31:19.784Z,53026.01
2022-07-27T04:32:22.659Z,53001.96
2022-07-27T04:33:25.344Z,53023.00
2022-07-27T04:34:28.099Z,53016.99
2022-07-27T04:35:30.769Z,53019.99
2022-07-27T04:36:33.445Z,53028.01
2022-07-27T04:37:36.112Z,53015.98
2022-07-27T04:38:38.883Z,52989.93
2022-07-27T04:39:44.426Z,52985.92
2022-07-27T04:40:47.192Z,53032.02
2022-07-27T04:41:52.844Z,53014.98
2022-07-27T04:42:55.395Z,53019.99
2022-07-27T04:43:57.965Z,53007.97
2022-07-27T04:45:01.468Z,53003.96
2022-07-27T04:46:04.609Z,53009.97
2022-07-27T04:47:07.417Z,52989.93
2022-07-27T04:48:10.289Z,53018.99
2022-07-27T04:49:16.576Z,52987.93
2022-07-27T04:50:19.608Z,52975.91
2022-07-27T04:51:22.492Z,53027.01
2022-07-27T04:52:26.718Z,53011.98
2022-07-27T04:53:29.472Z,52993.94
2022-07-27T04:54:32.144Z,53009.97
2022-07-27T04:55:34.815Z,53054.06
2022-07-27T04:56:40.550Z,53019.99
2022-07-27T04:57:43.119Z,53021.00
2022-07-27T04:58:46.277Z,53006.97
2022-07-27T04:59:49.562Z,53035.02
2022-07-27T05:00:53.479Z,52999.95
2022-07-27T05:01:56.641Z,53023.00
2022-07-27T05:03:02.279Z,53001.96
2022-07-27T05:04:05.591Z,53011.98
2022-07-27T05:05:08.448Z,53027.01
2022-07-27T05:06:11.421Z,52999.95
2022-07-27T05:07:17.058Z,53032.02
2022-07-27T05:08:23.305Z,52988.93
2022-07-27T05:09:27.003Z,52980.91
2022-07-27T05:10:29.980Z,52985.92
2022-07-27T05:11:33.069Z,53008.97
2022-07-27T05:12:36.454Z,53015.98
2022-07-27T05:13:39.637Z,52965.88
2022-07-27T05:14:43.123Z,53018.99
2022-07-27T05:15:54.246Z,53015.98
2022-07-27T05:16:53.471Z,53031.02
2022-07-27T05:17:56.449Z,53029.01
2022-07-27T05:18:59.644Z,53032.02
2022-07-27T05:20:03.125Z,53044.04
2022-07-27T05:21:05.998Z,53013.98
2022-07-27T05:22:09.295Z,52993.94
2022-07-27T05:23:12.162Z,53036.03
2022-07-27T05:24:15.232Z,53023.00
2022-07-27T05:25:19.543Z,53018.99
2022-07-27T05:26:22.723Z,53031.02
2022-07-27T05:27:25.904Z,52999.95
2022-07-27T05:28:29.089Z,53011.98
2022-07-27T05:29:32.475Z,53044.04
2022-07-27T05:30:35.970Z,53016.99
2022-07-27T05:31:39.150Z,52999.95
2022-07-27T05:32:42.028Z,52995.95
2022-07-27T05:33:48.584Z,53007.97
2022-07-27T05:34:49.529Z,53036.03
2022-07-27T05:35:52.922Z,52985.92
2022-07-27T05:36:56.287Z,52982.92
2022-07-27T05:37:59.685Z,52997.95
2022-07-27T05:39:02.360Z,52980.91
2022-07-27T05:40:05.213Z,53014.98
2022-07-27T05:41:11.267Z,52988.93
2022-07-27T05:42:14.242Z,53005.96
2022-07-27T05:43:17.220Z,53004.96
2022-07-27T05:44:20.301Z,52996.95
2022-07-27T05:45:23.523Z,53031.02
2022-07-27T05:46:32.451Z,53019.99
2022-07-27T05:47:31.482Z,52995.95
2022-07-27T05:48:35.825Z,53015.98
2022-07-27T05:49:39.073Z,53016.99
2022-07-27T05:50:42.157Z,53018.99
2022-07-27T05:51:45.747Z,53015.98
2022-07-27T05:52:48.727Z,53014.98
2022-07-27T05:53:52.115Z,52982.92
2022-07-27T05:54:55.287Z,52985.92
2022-07-27T05:56:00.728Z,53034.02
2022-07-27T05:57:03.503Z,53034.02
2022-07-27T05:58:06.169Z,53053.06
2022-07-27T05:59:12.390Z,53009.97
2022-07-27T06:00:15.602Z,53032.02
2022-07-27T06:01:18.396Z,53029.01
2022-07-27T06:02:22.068Z,53008.97
2022-07-27T06:03:25.504Z,53030.02
2022-07-27T06:04:28.428Z,53028.01
2022-07-27T06:05:37.460Z,52990.93
2022-07-27T06:06:40.538Z,52998.95
2022-07-27T06:07:44.432Z,53051.06
2022-07-27T06:08:48.839Z,52980.91
2022-07-27T06:09:52.031Z,53018.99
2022-07-27T06:10:55.105Z,53022.00
2022-07-27T06:11:58.286Z,53055.07
2022-07-27T06:13:01.473Z,53034.02
2022-07-27T06:14:04.343Z,52994.94
2022-07-27T06:15:07.416Z,52985.92
2022-07-27T06:16:10.838Z,53047.05
2022-07-27T06:17:13.701Z,53001.96
2022-07-27T06:18:16.774Z,53054.06
2022-07-27T06:19:19.540Z,52997.95
2022-07-27T06:20:22.312Z,53050.05
2022-07-27T06:21:25.280Z,53005.96
2022-07-27T06:22:28.476Z,53011.98
2022-07-27T06:23:31.881Z,53003.96
2022-07-27T06:24:34.930Z,53003.96
2022-07-27T06:25:38.211Z,53032.02
2022-07-27T06:26:41.391Z,53038.03
2022-07-27T06:27:44.061Z,52986.93
2022-07-27T06:28:47.139Z,53001.96
2022-07-27T06:29:50.221Z,53019.99
2022-07-27T06:30:55.865Z,53038.03
2022-07-27T06:31:59.312Z,53047.05
2022-07-27T06:33:02.738Z,53048.05
2022-07-27T06:34:11.832Z,53025.00
2022-07-27T06:35:09.920Z,53053.06
2022-07-27T06:36:15.564Z,53031.02
2022-07-27T06:37:18.717Z,53054.06
2022-07-27T06:38:22.649Z,53070.10
2022-07-27T06:39:26.436Z,53078.11
2022-07-27T06:40:30.214Z,53055.07
2022-07-27T06:41:33.217Z,53069.09
2022-07-27T06:42:36.190Z,53058.07
2022-07-27T06:43:39.267Z,53051.06
2022-07-27T06:44:42.545Z,53076.11
2022-07-27T06:45:45.428Z,53072.10
2022-07-27T06:46:48.466Z,53095.15
2022-07-27T06:47:51.395Z,53070.10
2022-07-27T06:48:57.104Z,53057.07
2022-07-27T06:50:00.400Z,53070.10
2022-07-27T06:51:03.382Z,53102.16
2022-07-27T06:52:06.564Z,53076.11
2022-07-27T06:53:09.336Z,53096.15
2022-07-27T06:54:12.215Z,53031.02
2022-07-27T06:55:15.193Z,53100.16
2022-07-27T06:56:18.064Z,53069.09
2022-07-27T06:57:21.251Z,53053.06
2022-07-27T06:58:27.387Z,53066.09
2022-07-27T06:59:43.199Z,53066.09
2022-07-27T07:00:35.161Z,53076.11
2022-07-27T07:01:38.064Z,53069.09
2022-07-27T07:02:41.352Z,53130.22
2022-07-27T07:03:44.406Z,53062.08
2022-07-27T07:04:47.301Z,53073.10
2022-07-27T07:05:50.496Z,53078.11
2022-07-27T07:06:53.562Z,53050.05
2022-07-27T07:07:56.553Z,53095.15
2022-07-27T07:08:59.728Z,53070.10
2022-07-27T07:10:02.735Z,53108.17
2022-07-27T07:11:05.702Z,53144.25
2022-07-27T07:12:08.666Z,53098.15
2022-07-27T07:13:11.347Z,53097.15
2022-07-27T07:14:14.501Z,53099.16
2022-07-27T07:15:17.386Z,53117.19
2022-07-27T07:16:23.209Z,53099.16
2022-07-27T07:17:26.204Z,53117.19
2022-07-27T07:18:29.190Z,53110.18
2022-07-27T07:19:38.504Z,53099.16
2022-07-27T07:20:41.477Z,53093.14
2022-07-27T07:21:44.767Z,53128.21
2022-07-27T07:22:47.743Z,53114.19
2022-07-27T07:23:50.830Z,53130.22
2022-07-27T07:24:55.430Z,53144.25
2022-07-27T07:25:58.825Z,53108.17
2022-07-27T07:27:02.104Z,53128.21
2022-07-27T07:28:05.096Z,53117.19
2022-07-27T07:29:07.969Z,53142.25
2022-07-27T07:30:10.729Z,53132.22
2022-07-27T07:31:13.566Z,53146.25
2022-07-27T07:32:16.476Z,53124.21
2022-07-27T07:33:22.034Z,53130.22
2022-07-27T07:34:24.801Z,53159.28
2022-07-27T07:35:27.457Z,53170.30
2022-07-27T07:36:33.204Z,53192.35
2022-07-27T07:37:36.083Z,53179.32
2022-07-27T07:38:39.161Z,53208.38
2022-07-27T07:39:42.029Z,53187.34
2022-07-27T07:40:45.412Z,53175.31
2022-07-27T07:41:48.498Z,53206.38
2022-07-27T07:42:51.785Z,53172.31
2022-07-27T07:43:54.967Z,53216.40
2022-07-27T07:44:57.959Z,53190.34
2022-07-27T07:46:00.709Z,53208.38
2022-07-27T07:47:03.474Z,53236.44
2022-07-27T07:48:06.462Z,53206.38
2022-07-27T07:49:10.079Z,53235.44
2022-07-27T07:50:12.934Z,53236.44
2022-07-27T07:51:15.811Z,53214.39
2022-07-27T07:52:18.984Z,53236.44
2022-07-27T07:53:21.971Z,53240.45
2022-07-27T07:54:25.039Z,53248.46
2022-07-27T07:55:27.824Z,53270.51
2022-07-27T07:56:31.321Z,53236.44
2022-07-27T07:57:34.294Z,53234.44
2022-07-27T07:58:37.163Z,53233.43
2022-07-27T07:59:40.233Z,53239.45
2022-07-27T08:00:43.105Z,53309.59
2022-07-27T08:01:45.941Z,53298.57
2022-07-27T08:02:48.816Z,53325.63
2022-07-27T08:03:51.839Z,53363.71
2022-07-27T08:04:54.603Z,53422.84
2022-07-27T08:05:57.582Z,53431.86
2022-07-27T08:07:00.455Z,53478.96
2022-07-27T08:08:03.334Z,53445.89
2022-07-27T08:09:06.312Z,53428.85
2022-07-27T08:10:09.182Z,53411.81
2022-07-27T08:11:12.056Z,53356.70
2022-07-27T08:12:15.339Z,53405.80
2022-07-27T08:13:21.894Z,53370.73
2022-07-27T08:14:22.736Z,53376.74
2022-07-27T08:15:29.875Z,53357.70
2022-07-27T08:16:30.080Z,53377.74
2022-07-27T08:17:33.092Z,53361.71
2022-07-27T08:18:35.966Z,53340.66
2022-07-27T08:19:40.344Z,53344.67
2022-07-27T08:20:43.460Z,53348.68
2022-07-27T08:21:46.343Z,53295.57
2022-07-27T08:22:49.312Z,53325.63
2022-07-27T08:23:52.285Z,53284.54
2022-07-27T08:24:55.669Z,53320.62
2022-07-27T08:26:00.045Z,53351.68
2022-07-27T08:27:02.863Z,53342.66
2022-07-27T08:28:05.808Z,53284.54
2022-07-27T08:29:13.782Z,53250.47
2022-07-27T08:30:14.551Z,53272.52
2022-07-27T08:31:24.571Z,53269.51
2022-07-27T08:32:22.547Z,53300.57
2022-07-27T08:33:25.325Z,53310.60
2022-07-27T08:34:28.197Z,53258.49
2022-07-27T08:35:31.385Z,53305.59
2022-07-27T08:36:34.155Z,53275.52
2022-07-27T08:37:36.824Z,53282.54
2022-07-27T08:38:39.694Z,53237.44
2022-07-27T08:40:37.928Z,53257.48
2022-07-27T08:40:47.697Z,53240.45
2022-07-27T08:41:51.088Z,53234.44
2022-07-27T08:42:54.266Z,53232.43
2022-07-27T08:43:57.344Z,53174.31
2022-07-27T08:45:00.249Z,53241.45
2022-07-27T08:46:03.296Z,53214.39
2022-07-27T08:47:06.232Z,53226.42
2022-07-27T08:48:09.255Z,53218.40
2022-07-27T08:49:12.367Z,53214.39
2022-07-27T08:50:15.618Z,53214.39
2022-07-27T08:51:18.520Z,53202.37
2022-07-27T08:52:21.574Z,53200.37
2022-07-27T08:53:24.241Z,53190.34
2022-07-27T08:54:27.243Z,53211.39
2022-07-27T08:55:30.098Z,53184.33
2022-07-27T08:56:33.072Z,53191.35
2022-07-27T08:57:36.149Z,53216.40
2022-07-27T08:58:39.331Z,53200.37
2022-07-27T08:59:42.540Z,53209.38
2022-07-27T09:00:47.060Z,53219.41
2022-07-27T09:01:50.704Z,53220.41
2022-07-27T09:02:53.780Z,53204.37
2022-07-27T09:03:56.878Z,53177.32
2022-07-27T09:05:00.059Z,53212.39
2022-07-27T09:06:03.153Z,53180.32
2022-07-27T09:07:06.022Z,53205.37
2022-07-27T09:08:08.892Z,53221.41
2022-07-27T09:09:11.882Z,53226.42
2022-07-27T09:10:14.946Z,53212.39
2022-07-27T09:11:17.720Z,53174.31
2022-07-27T09:12:20.699Z,53194.35
2022-07-27T09:13:23.490Z,53224.41
2022-07-27T09:14:26.241Z,53209.38
2022-07-27T09:15:34.485Z,53210.39
2022-07-27T09:17:14.762Z,53215.40
2022-07-27T09:17:48.529Z,53212.39
2022-07-27T09:18:42.864Z,53223.41
2022-07-27T09:19:45.740Z,53288.55
2022-07-27T09:20:48.816Z,53231.43
2022-07-27T09:21:51.888Z,53235.44
2022-07-27T09:22:55.180Z,53191.35
2022-07-27T09:23:58.053Z,53220.41
2022-07-27T09:25:03.998Z,53236.44
2022-07-27T09:26:16.717Z,53230.43
2022-07-27T09:27:11.179Z,53244.46
2022-07-27T09:28:14.361Z,53237.44
2022-07-27T09:29:17.605Z,53227.42
2022-07-27T09:30:20.419Z,53205.37
2022-07-27T09:31:23.136Z,53233.43
2022-07-27T09:32:25.963Z,53207.38
2022-07-27T09:33:28.867Z,53199.36
2022-07-27T09:34:33.142Z,53222.41
2022-07-27T09:35:35.921Z,53176.32
2022-07-27T09:36:38.687Z,53162.29
2022-07-27T09:37:41.367Z,53194.35
2022-07-27T09:38:44.134Z,53218.40
2022-07-27T09:39:46.910Z,53238.45
2022-07-27T09:40:49.947Z,53196.36
2022-07-27T09:41:52.959Z,53240.45
2022-07-27T09:43:09.093Z,53212.39
2022-07-27T09:45:06.498Z,53236.44
2022-07-27T09:46:09.531Z,53200.37
2022-07-27T09:47:12.152Z,53213.39
2022-07-27T09:48:15.018Z,53242.45
2022-07-27T09:49:18.054Z,53241.45
2022-07-27T09:50:20.772Z,53249.47
2022-07-27T09:51:58.413Z,53226.42
2022-07-27T09:52:28.162Z,53240.45
2022-07-27T09:53:43.446Z,53244.46
2022-07-27T09:54:35.859Z,53248.46
2022-07-27T09:55:38.730Z,53206.38
2022-07-27T09:56:41.818Z,53268.51
2022-07-27T09:57:44.779Z,53260.49
2022-07-27T09:58:47.758Z,53239.45
2022-07-27T09:59:50.943Z,53252.48
2022-07-27T10:00:54.017Z,53268.51
2022-07-27T10:01:57.075Z,53256.48
2022-07-27T10:03:00.178Z,53279.53
2022-07-27T10:04:03.284Z,53238.45
2022-07-27T10:05:06.230Z,53240.45
2022-07-27T10:06:09.212Z,53221.41
2022-07-27T10:07:13.762Z,53260.49
2022-07-27T10:08:16.599Z,53268.51
2022-07-27T10:09:19.277Z,53297.57
2022-07-27T10:10:22.177Z,53270.51
2022-07-27T10:11:24.920Z,53294.56
2022-07-27T10:12:27.995Z,53298.57
2022-07-27T10:13:30.871Z,53294.56
2022-07-27T10:14:33.752Z,53252.48
2022-07-27T10:15:37.385Z,53234.44
2022-07-27T10:16:40.417Z,53274.52
2022-07-27T10:17:44.087Z,53277.53
2022-07-27T10:18:50.755Z,53267.51
2022-07-27T10:19:54.776Z,53251.47
2022-07-27T10:20:58.057Z,53241.45
2022-07-27T10:22:01.040Z,53270.51
2022-07-27T10:23:03.910Z,53276.53
2022-07-27T10:24:08.426Z,53315.61
2022-07-27T10:25:14.266Z,53266.50
2022-07-27T10:26:20.233Z,53310.60
2022-07-27T10:27:22.884Z,53304.58
2022-07-27T10:28:25.658Z,53283.54
2022-07-27T10:29:28.323Z,53309.59
2022-07-27T10:30:33.908Z,53289.55
2022-07-27T10:31:37.086Z,53266.50
2022-07-27T10:32:40.023Z,53263.50
2022-07-27T10:33:45.865Z,53252.48
2022-07-27T10:34:48.740Z,53287.55
2022-07-27T10:35:54.324Z,53274.52
2022-07-27T10:36:57.562Z,53259.49
2022-07-27T10:38:00.435Z,53325.63
2022-07-27T10:39:06.492Z,53276.53
2022-07-27T10:40:09.458Z,53284.54
2022-07-27T10:41:12.239Z,53318.61
2022-07-27T10:42:17.779Z,53302.58
2022-07-27T10:43:20.438Z,53315.61
2022-07-27T10:44:26.183Z,53272.52
2022-07-27T10:45:50.245Z,53303.58
2022-07-27T10:46:36.096Z,53325.63
2022-07-27T10:47:41.868Z,53281.54
2022-07-27T10:48:49.035Z,53333.64
2022-07-27T10:49:49.362Z,53338.66
2022-07-27T10:50:52.551Z,53339.66
2022-07-27T10:51:55.426Z,53315.61
2022-07-27T10:53:01.263Z,53300.57
2022-07-27T10:54:12.404Z,53318.61
2022-07-27T10:55:08.445Z,53338.66
2022-07-27T10:56:17.261Z,53319.62
2022-07-27T10:57:23.010Z,53309.59
2022-07-27T10:58:25.673Z,53329.64
2022-07-27T10:59:39.988Z,53359.70
2022-07-27T11:00:42.209Z,53332.64
2022-07-27T11:01:45.623Z,53329.64
2022-07-27T11:02:48.641Z,53283.54
2022-07-27T11:03:51.670Z,53299.57
2022-07-27T11:04:54.693Z,53306.59
2022-07-27T11:06:01.310Z,53329.64
2022-07-27T11:07:24.162Z,53289.55
2022-07-27T11:10:27.092Z,53316.61
2022-07-27T11:11:29.860Z,53287.55
2022-07-27T11:12:32.635Z,53289.55
2022-07-27T11:13:39.014Z,53316.61
2022-07-27T11:14:39.819Z,53338.66
2022-07-27T11:15:43.833Z,53356.70
2022-07-27T11:16:55.917Z,53356.70
2022-07-27T11:18:00.638Z,53337.66
2022-07-27T11:18:58.251Z,53343.67
2022-07-27T11:20:04.023Z,53334.65
2022-07-27T11:21:09.671Z,53344.67
2022-07-27T11:22:28.282Z,53339.66
2022-07-27T11:24:20.946Z,53344.67
2022-07-27T11:25:23.820Z,53354.69
2022-07-27T11:26:29.358Z,53359.70
2022-07-27T11:27:38.277Z,53354.69
2022-07-27T11:28:40.958Z,53329.64
2022-07-27T11:29:43.952Z,53335.65
2022-07-27T11:30:46.775Z,53344.67
2022-07-27T11:31:58.306Z,53376.74
2022-07-27T11:32:53.997Z,53330.64
2022-07-27T11:33:59.515Z,53350.68
2022-07-27T11:35:09.065Z,53354.69
2022-07-27T11:36:09.976Z,53318.61
2022-07-27T11:37:15.210Z,53326.63
2022-07-27T11:38:18.094Z,53337.66
2022-07-27T11:39:54.309Z,53345.67
2022-07-27T11:40:56.408Z,53349.68
2022-07-27T11:41:55.828Z,53375.73
2022-07-27T11:42:34.087Z,53384.75
2022-07-27T11:43:40.443Z,53348.68
2022-07-27T11:44:44.650Z,53330.64
2022-07-27T11:45:51.849Z,53351.68
2022-07-27T11:46:58.542Z,53373.73
2022-07-27T11:47:59.520Z,53381.75
2022-07-27T11:49:07.468Z,53388.76
2022-07-27T11:50:07.096Z,53430.85
2022-07-27T11:51:12.897Z,53419.83
2022-07-27T11:52:15.726Z,53411.81
2022-07-27T11:53:21.670Z,53391.77
2022-07-27T11:54:24.451Z,53427.85
2022-07-27T11:55:27.115Z,53418.83
2022-07-27T11:56:32.649Z,53423.84
2022-07-27T11:57:38.198Z,53439.87
2022-07-27T11:58:41.779Z,53453.90
2022-07-27T11:59:47.336Z,53472.95
2022-07-27T12:00:50.194Z,53511.03
2022-07-27T12:01:53.137Z,53505.01
2022-07-27T12:02:59.118Z,53575.17
2022-07-27T12:04:07.727Z,53558.13
2022-07-27T12:05:10.554Z,53595.21
2022-07-27T12:06:13.473Z,53599.22
2022-07-27T12:07:16.146Z,53625.27
2022-07-27T12:08:19.125Z,53607.23
2022-07-27T12:09:24.961Z,53649.33
2022-07-27T12:10:27.641Z,53637.30
2022-07-27T12:11:34.266Z,53667.37
2022-07-27T12:12:35.233Z,53685.41
2022-07-27T12:13:38.103Z,53652.34
2022-07-27T12:14:41.076Z,53670.37
2022-07-27T12:15:46.473Z,53665.36
2022-07-27T12:16:51.115Z,53687.41
2022-07-27T12:17:59.843Z,53709.46
2022-07-27T12:19:02.817Z,53705.45
2022-07-27T12:20:05.922Z,53721.49
2022-07-27T12:21:09.485Z,53693.43
2022-07-27T12:22:15.227Z,53757.57
2022-07-27T12:23:20.763Z,53754.56
2022-07-27T12:24:23.436Z,53734.52
2022-07-27T12:25:29.281Z,53777.61
2022-07-27T12:26:32.156Z,53830.73
2022-07-27T12:27:35.133Z,53817.70
2022-07-27T12:28:40.565Z,53859.80